sensor_id;sensor_type;location;lat;lon;timestamp;P1;durP1;ratioP1;P2;durP2;ratioP2
8831;SDS011;4452;50.756;4.472;2023-05-27T00:02:24;16.20;;;5.55;;
8831;SDS011;4452;50.756;4.472;2023-05-27T00:04:51;23.00;;;6.22;;
8831;SDS011;4452;50.756;4.472;2023-05-27T00:07:16;23.58;;;6.50;;
8831;SDS011;4452;50.756;4.472;2023-05-27T00:09:42;13.05;;;4.90;;
8831;SDS011;4452;50.756;4.472;2023-05-27T00:12:08;17.05;;;6.10;;
8831;SDS011;4452;50.756;4.472;2023-05-27T00:14:33;19.77;;;5.70;;
8831;SDS011;4452;50.756;4.472;2023-05-27T00:16:59;26.55;;;6.22;;
8831;SDS011;4452;50.756;4.472;2023-05-27T00:19:27;22.92;;;5.32;;
8831;SDS011;4452;50.756;4.472;2023-05-27T00:21:54;18.92;;;6.25;;
8831;SDS011;4452;50.756;4.472;2023-05-27T00:24:20;15.35;;;5.72;;
8831;SDS011;4452;50.756;4.472;2023-05-27T00:26:46;30.23;;;5.93;;
8831;SDS011;4452;50.756;4.472;2023-05-27T00:29:12;17.10;;;5.40;;
8831;SDS011;4452;50.756;4.472;2023-05-27T00:31:38;19.30;;;5.97;;
8831;SDS011;4452;50.756;4.472;2023-05-27T00:34:04;19.75;;;5.07;;
8831;SDS011;4452;50.756;4.472;2023-05-27T00:36:30;28.25;;;5.57;;
8831;SDS011;4452;50.756;4.472;2023-05-27T00:38:58;19.55;;;6.10;;
8831;SDS011;4452;50.756;4.472;2023-05-27T00:41:24;25.15;;;6.00;;
8831;SDS011;4452;50.756;4.472;2023-05-27T00:43:51;18.92;;;5.72;;
8831;SDS011;4452;50.756;4.472;2023-05-27T00:46:17;20.92;;;5.70;;
8831;SDS011;4452;50.756;4.472;2023-05-27T00:48:43;18.90;;;6.40;;
8831;SDS011;4452;50.756;4.472;2023-05-27T00:51:10;20.42;;;5.80;;
8831;SDS011;4452;50.756;4.472;2023-05-27T00:53:38;18.63;;;5.85;;
8831;SDS011;4452;50.756;4.472;2023-05-27T00:56:09;16.00;;;5.78;;
8831;SDS011;4452;50.756;4.472;2023-05-27T00:58:36;20.73;;;5.63;;
8831;SDS011;4452;50.756;4.472;2023-05-27T01:01:02;17.70;;;5.32;;
8831;SDS011;4452;50.756;4.472;2023-05-27T01:03:28;20.75;;;5.90;;
8831;SDS011;4452;50.756;4.472;2023-05-27T01:05:59;24.23;;;6.18;;
8831;SDS011;4452;50.756;4.472;2023-05-27T01:11:24;21.75;;;6.35;;
8831;SDS011;4452;50.756;4.472;2023-05-27T01:13:57;19.50;;;5.47;;
8831;SDS011;4452;50.756;4.472;2023-05-27T01:16:26;20.23;;;6.10;;
8831;SDS011;4452;50.756;4.472;2023-05-27T01:18:55;20.48;;;6.22;;
8831;SDS011;4452;50.756;4.472;2023-05-27T01:21:28;18.67;;;5.88;;
8831;SDS011;4452;50.756;4.472;2023-05-27T01:24:01;26.15;;;6.57;;
8831;SDS011;4452;50.756;4.472;2023-05-27T01:26:28;23.27;;;6.68;;
8831;SDS011;4452;50.756;4.472;2023-05-27T01:28:54;24.23;;;5.72;;
8831;SDS011;4452;50.756;4.472;2023-05-27T01:31:22;22.70;;;5.85;;
8831;SDS011;4452;50.756;4.472;2023-05-27T01:33:58;21.27;;;6.60;;
8831;SDS011;4452;50.756;4.472;2023-05-27T01:36:27;26.02;;;6.10;;
8831;SDS011;4452;50.756;4.472;2023-05-27T01:38:56;28.52;;;6.00;;
8831;SDS011;4452;50.756;4.472;2023-05-27T01:41:22;21.15;;;6.75;;
8831;SDS011;4452;50.756;4.472;2023-05-27T01:43:49;19.75;;;6.28;;
8831;SDS011;4452;50.756;4.472;2023-05-27T01:46:16;20.48;;;6.32;;
8831;SDS011;4452;50.756;4.472;2023-05-27T01:48:42;18.52;;;5.60;;
8831;SDS011;4452;50.756;4.472;2023-05-27T01:51:08;23.38;;;6.82;;
8831;SDS011;4452;50.756;4.472;2023-05-27T01:53:34;26.05;;;6.68;;
8831;SDS011;4452;50.756;4.472;2023-05-27T01:56:00;25.27;;;6.85;;
8831;SDS011;4452;50.756;4.472;2023-05-27T01:58:26;21.08;;;6.00;;
8831;SDS011;4452;50.756;4.472;2023-05-27T02:00:52;18.25;;;6.07;;
8831;SDS011;4452;50.756;4.472;2023-05-27T02:03:17;24.63;;;7.20;;
8831;SDS011;4452;50.756;4.472;2023-05-27T02:05:43;20.20;;;6.00;;
8831;SDS011;4452;50.756;4.472;2023-05-27T02:08:09;22.20;;;5.80;;
8831;SDS011;4452;50.756;4.472;2023-05-27T02:10:35;18.45;;;5.45;;
8831;SDS011;4452;50.756;4.472;2023-05-27T02:13:01;23.00;;;6.45;;
8831;SDS011;4452;50.756;4.472;2023-05-27T02:15:27;27.98;;;6.25;;
8831;SDS011;4452;50.756;4.472;2023-05-27T02:17:53;20.63;;;6.22;;
8831;SDS011;4452;50.756;4.472;2023-05-27T02:20:21;21.67;;;6.95;;
8831;SDS011;4452;50.756;4.472;2023-05-27T02:22:49;19.33;;;5.85;;
8831;SDS011;4452;50.756;4.472;2023-05-27T02:25:15;17.35;;;6.38;;
8831;SDS011;4452;50.756;4.472;2023-05-27T02:27:41;18.52;;;6.18;;
8831;SDS011;4452;50.756;4.472;2023-05-27T02:30:13;21.88;;;6.10;;
8831;SDS011;4452;50.756;4.472;2023-05-27T02:32:40;25.65;;;6.18;;
8831;SDS011;4452;50.756;4.472;2023-05-27T02:35:06;25.48;;;6.13;;
8831;SDS011;4452;50.756;4.472;2023-05-27T02:37:32;33.30;;;7.57;;
8831;SDS011;4452;50.756;4.472;2023-05-27T02:39:58;22.02;;;5.85;;
8831;SDS011;4452;50.756;4.472;2023-05-27T02:42:24;16.70;;;6.00;;
8831;SDS011;4452;50.756;4.472;2023-05-27T02:44:49;21.45;;;6.60;;
8831;SDS011;4452;50.756;4.472;2023-05-27T02:47:15;28.98;;;6.63;;
8831;SDS011;4452;50.756;4.472;2023-05-27T02:49:41;20.15;;;6.60;;
8831;SDS011;4452;50.756;4.472;2023-05-27T02:52:06;30.33;;;6.45;;
8831;SDS011;4452;50.756;4.472;2023-05-27T02:54:32;27.50;;;6.75;;
8831;SDS011;4452;50.756;4.472;2023-05-27T02:56:57;27.48;;;6.90;;
8831;SDS011;4452;50.756;4.472;2023-05-27T02:59:23;29.17;;;7.05;;
8831;SDS011;4452;50.756;4.472;2023-05-27T03:01:48;27.05;;;7.78;;
8831;SDS011;4452;50.756;4.472;2023-05-27T03:04:14;26.08;;;7.57;;
8831;SDS011;4452;50.756;4.472;2023-05-27T03:06:41;31.95;;;6.80;;
8831;SDS011;4452;50.756;4.472;2023-05-27T03:09:07;25.45;;;7.30;;
8831;SDS011;4452;50.756;4.472;2023-05-27T03:11:33;24.08;;;7.45;;
8831;SDS011;4452;50.756;4.472;2023-05-27T03:13:59;29.77;;;7.15;;
8831;SDS011;4452;50.756;4.472;2023-05-27T03:16:25;31.88;;;7.57;;
8831;SDS011;4452;50.756;4.472;2023-05-27T03:18:50;33.03;;;8.68;;
8831;SDS011;4452;50.756;4.472;2023-05-27T03:21:16;21.48;;;6.78;;
8831;SDS011;4452;50.756;4.472;2023-05-27T03:23:41;32.35;;;7.15;;
8831;SDS011;4452;50.756;4.472;2023-05-27T03:26:08;26.92;;;7.13;;
8831;SDS011;4452;50.756;4.472;2023-05-27T03:28:33;28.50;;;7.60;;
8831;SDS011;4452;50.756;4.472;2023-05-27T03:30:59;36.78;;;8.05;;
8831;SDS011;4452;50.756;4.472;2023-05-27T03:33:24;32.10;;;7.68;;
8831;SDS011;4452;50.756;4.472;2023-05-27T03:35:50;23.73;;;7.65;;
8831;SDS011;4452;50.756;4.472;2023-05-27T03:38:16;25.65;;;7.10;;
8831;SDS011;4452;50.756;4.472;2023-05-27T03:40:42;31.42;;;7.93;;
8831;SDS011;4452;50.756;4.472;2023-05-27T03:43:07;28.20;;;8.13;;
8831;SDS011;4452;50.756;4.472;2023-05-27T03:45:33;26.50;;;7.20;;
8831;SDS011;4452;50.756;4.472;2023-05-27T03:47:59;25.00;;;7.78;;
8831;SDS011;4452;50.756;4.472;2023-05-27T03:50:24;29.52;;;7.50;;
8831;SDS011;4452;50.756;4.472;2023-05-27T03:52:50;26.92;;;7.70;;
8831;SDS011;4452;50.756;4.472;2023-05-27T03:55:15;26.23;;;7.88;;
8831;SDS011;4452;50.756;4.472;2023-05-27T03:57:42;29.90;;;8.23;;
8831;SDS011;4452;50.756;4.472;2023-05-27T04:00:08;26.30;;;7.65;;
8831;SDS011;4452;50.756;4.472;2023-05-27T04:02:37;23.45;;;7.35;;
8831;SDS011;4452;50.756;4.472;2023-05-27T04:05:03;20.15;;;6.68;;
8831;SDS011;4452;50.756;4.472;2023-05-27T04:07:28;32.63;;;8.07;;
8831;SDS011;4452;50.756;4.472;2023-05-27T04:09:54;25.20;;;7.72;;
8831;SDS011;4452;50.756;4.472;2023-05-27T04:12:20;33.05;;;7.63;;
8831;SDS011;4452;50.756;4.472;2023-05-27T04:14:46;29.33;;;7.97;;
8831;SDS011;4452;50.756;4.472;2023-05-27T04:17:11;27.45;;;8.48;;
8831;SDS011;4452;50.756;4.472;2023-05-27T04:19:38;23.15;;;7.38;;
8831;SDS011;4452;50.756;4.472;2023-05-27T04:22:04;26.65;;;7.70;;
8831;SDS011;4452;50.756;4.472;2023-05-27T04:24:30;30.13;;;8.50;;
8831;SDS011;4452;50.756;4.472;2023-05-27T04:26:55;25.17;;;7.60;;
8831;SDS011;4452;50.756;4.472;2023-05-27T04:29:21;32.25;;;7.90;;
8831;SDS011;4452;50.756;4.472;2023-05-27T04:31:50;28.95;;;7.63;;
8831;SDS011;4452;50.756;4.472;2023-05-27T04:34:16;29.95;;;7.32;;
8831;SDS011;4452;50.756;4.472;2023-05-27T04:36:42;22.73;;;7.45;;
8831;SDS011;4452;50.756;4.472;2023-05-27T04:39:09;29.23;;;7.88;;
8831;SDS011;4452;50.756;4.472;2023-05-27T04:41:36;28.60;;;8.05;;
8831;SDS011;4452;50.756;4.472;2023-05-27T04:44:04;28.27;;;7.93;;
8831;SDS011;4452;50.756;4.472;2023-05-27T04:46:31;24.20;;;7.70;;
8831;SDS011;4452;50.756;4.472;2023-05-27T04:48:56;32.92;;;7.53;;
8831;SDS011;4452;50.756;4.472;2023-05-27T04:51:22;28.02;;;8.02;;
8831;SDS011;4452;50.756;4.472;2023-05-27T04:53:48;21.20;;;7.43;;
8831;SDS011;4452;50.756;4.472;2023-05-27T04:56:14;27.23;;;8.13;;
8831;SDS011;4452;50.756;4.472;2023-05-27T04:58:41;23.38;;;7.88;;
8831;SDS011;4452;50.756;4.472;2023-05-27T05:01:09;18.13;;;7.32;;
8831;SDS011;4452;50.756;4.472;2023-05-27T05:03:42;19.55;;;8.07;;
8831;SDS011;4452;50.756;4.472;2023-05-27T05:06:17;34.58;;;7.72;;
8831;SDS011;4452;50.756;4.472;2023-05-27T05:08:47;16.35;;;5.85;;
8831;SDS011;4452;50.756;4.472;2023-05-27T05:11:13;25.13;;;7.25;;
8831;SDS011;4452;50.756;4.472;2023-05-27T05:13:39;22.65;;;6.53;;
8831;SDS011;4452;50.756;4.472;2023-05-27T05:16:05;25.30;;;7.75;;
8831;SDS011;4452;50.756;4.472;2023-05-27T05:18:31;26.05;;;8.73;;
8831;SDS011;4452;50.756;4.472;2023-05-27T05:20:57;33.15;;;7.85;;
8831;SDS011;4452;50.756;4.472;2023-05-27T05:23:22;24.63;;;7.78;;
8831;SDS011;4452;50.756;4.472;2023-05-27T05:25:48;26.75;;;7.85;;
8831;SDS011;4452;50.756;4.472;2023-05-27T05:28:21;31.27;;;8.70;;
8831;SDS011;4452;50.756;4.472;2023-05-27T05:30:50;29.98;;;9.25;;
8831;SDS011;4452;50.756;4.472;2023-05-27T05:33:17;23.65;;;7.75;;
8831;SDS011;4452;50.756;4.472;2023-05-27T05:35:42;25.90;;;7.97;;
8831;SDS011;4452;50.756;4.472;2023-05-27T05:38:08;31.00;;;8.55;;
8831;SDS011;4452;50.756;4.472;2023-05-27T05:40:34;25.70;;;8.73;;
8831;SDS011;4452;50.756;4.472;2023-05-27T05:42:59;24.98;;;8.32;;
8831;SDS011;4452;50.756;4.472;2023-05-27T05:45:25;29.33;;;7.90;;
8831;SDS011;4452;50.756;4.472;2023-05-27T05:47:53;23.13;;;8.70;;
8831;SDS011;4452;50.756;4.472;2023-05-27T05:50:19;27.05;;;8.75;;
8831;SDS011;4452;50.756;4.472;2023-05-27T05:52:45;25.30;;;8.27;;
8831;SDS011;4452;50.756;4.472;2023-05-27T05:55:10;23.90;;;8.30;;
8831;SDS011;4452;50.756;4.472;2023-05-27T05:57:36;24.83;;;8.27;;
8831;SDS011;4452;50.756;4.472;2023-05-27T06:00:02;32.35;;;9.50;;
8831;SDS011;4452;50.756;4.472;2023-05-27T06:02:28;28.02;;;8.40;;
8831;SDS011;4452;50.756;4.472;2023-05-27T06:04:53;29.75;;;8.27;;
8831;SDS011;4452;50.756;4.472;2023-05-27T06:07:19;31.55;;;8.65;;
8831;SDS011;4452;50.756;4.472;2023-05-27T06:09:45;25.58;;;9.13;;
8831;SDS011;4452;50.756;4.472;2023-05-27T06:12:11;25.40;;;8.18;;
8831;SDS011;4452;50.756;4.472;2023-05-27T06:14:36;25.38;;;8.00;;
8831;SDS011;4452;50.756;4.472;2023-05-27T06:17:02;30.63;;;8.15;;
8831;SDS011;4452;50.756;4.472;2023-05-27T06:19:28;23.50;;;8.00;;
8831;SDS011;4452;50.756;4.472;2023-05-27T06:21:53;22.35;;;8.13;;
8831;SDS011;4452;50.756;4.472;2023-05-27T06:24:20;25.98;;;8.05;;
8831;SDS011;4452;50.756;4.472;2023-05-27T06:26:46;28.10;;;8.60;;
8831;SDS011;4452;50.756;4.472;2023-05-27T06:29:12;21.75;;;8.57;;
8831;SDS011;4452;50.756;4.472;2023-05-27T06:31:37;26.17;;;8.07;;
8831;SDS011;4452;50.756;4.472;2023-05-27T06:34:03;26.48;;;8.23;;
8831;SDS011;4452;50.756;4.472;2023-05-27T06:36:29;25.55;;;7.18;;
8831;SDS011;4452;50.756;4.472;2023-05-27T06:38:55;21.42;;;7.68;;
8831;SDS011;4452;50.756;4.472;2023-05-27T06:41:21;26.55;;;8.48;;
8831;SDS011;4452;50.756;4.472;2023-05-27T06:43:47;22.52;;;8.93;;
8831;SDS011;4452;50.756;4.472;2023-05-27T06:46:12;26.67;;;8.20;;
8831;SDS011;4452;50.756;4.472;2023-05-27T06:48:38;26.83;;;8.82;;
8831;SDS011;4452;50.756;4.472;2023-05-27T06:51:05;20.98;;;8.55;;
8831;SDS011;4452;50.756;4.472;2023-05-27T06:53:31;24.95;;;8.38;;
8831;SDS011;4452;50.756;4.472;2023-05-27T06:55:57;20.02;;;7.93;;
8831;SDS011;4452;50.756;4.472;2023-05-27T06:58:22;22.10;;;8.43;;
8831;SDS011;4452;50.756;4.472;2023-05-27T07:00:48;20.92;;;9.00;;
8831;SDS011;4452;50.756;4.472;2023-05-27T07:03:14;26.63;;;8.55;;
8831;SDS011;4452;50.756;4.472;2023-05-27T07:05:39;19.77;;;8.13;;
8831;SDS011;4452;50.756;4.472;2023-05-27T07:08:05;23.50;;;8.30;;
8831;SDS011;4452;50.756;4.472;2023-05-27T07:10:31;27.25;;;8.77;;
8831;SDS011;4452;50.756;4.472;2023-05-27T07:12:57;29.63;;;8.98;;
8831;SDS011;4452;50.756;4.472;2023-05-27T07:15:22;23.08;;;8.23;;
8831;SDS011;4452;50.756;4.472;2023-05-27T07:17:48;24.63;;;8.50;;
8831;SDS011;4452;50.756;4.472;2023-05-27T07:20:14;25.13;;;8.30;;
8831;SDS011;4452;50.756;4.472;2023-05-27T07:22:40;22.13;;;7.63;;
8831;SDS011;4452;50.756;4.472;2023-05-27T07:25:05;25.52;;;8.25;;
8831;SDS011;4452;50.756;4.472;2023-05-27T07:27:32;19.23;;;7.90;;
8831;SDS011;4452;50.756;4.472;2023-05-27T07:29:57;17.85;;;7.88;;
8831;SDS011;4452;50.756;4.472;2023-05-27T07:32:23;24.38;;;8.07;;
8831;SDS011;4452;50.756;4.472;2023-05-27T07:34:48;30.45;;;8.40;;
8831;SDS011;4452;50.756;4.472;2023-05-27T07:37:15;17.77;;;7.63;;
8831;SDS011;4452;50.756;4.472;2023-05-27T07:39:40;23.90;;;8.38;;
8831;SDS011;4452;50.756;4.472;2023-05-27T07:42:06;19.90;;;8.25;;
8831;SDS011;4452;50.756;4.472;2023-05-27T07:44:31;27.55;;;8.13;;
8831;SDS011;4452;50.756;4.472;2023-05-27T07:46:57;25.75;;;7.65;;
8831;SDS011;4452;50.756;4.472;2023-05-27T07:49:24;24.17;;;8.15;;
8831;SDS011;4452;50.756;4.472;2023-05-27T07:51:50;24.02;;;7.60;;
8831;SDS011;4452;50.756;4.472;2023-05-27T07:54:16;22.42;;;8.90;;
8831;SDS011;4452;50.756;4.472;2023-05-27T07:56:41;25.80;;;7.82;;
8831;SDS011;4452;50.756;4.472;2023-05-27T07:59:07;17.35;;;7.90;;
8831;SDS011;4452;50.756;4.472;2023-05-27T08:01:33;26.20;;;8.68;;
8831;SDS011;4452;50.756;4.472;2023-05-27T08:03:58;27.45;;;8.38;;
8831;SDS011;4452;50.756;4.472;2023-05-27T08:06:24;16.25;;;7.90;;
8831;SDS011;4452;50.756;4.472;2023-05-27T08:08:50;24.85;;;7.72;;
8831;SDS011;4452;50.756;4.472;2023-05-27T08:11:16;27.67;;;8.52;;
8831;SDS011;4452;50.756;4.472;2023-05-27T08:13:42;18.48;;;6.93;;
8831;SDS011;4452;50.756;4.472;2023-05-27T08:16:07;18.52;;;8.18;;
8831;SDS011;4452;50.756;4.472;2023-05-27T08:18:35;24.85;;;7.65;;
8831;SDS011;4452;50.756;4.472;2023-05-27T08:21:01;20.75;;;7.88;;
8831;SDS011;4452;50.756;4.472;2023-05-27T08:23:27;28.65;;;8.18;;
8831;SDS011;4452;50.756;4.472;2023-05-27T08:25:57;18.77;;;7.72;;
8831;SDS011;4452;50.756;4.472;2023-05-27T08:28:25;27.48;;;7.57;;
8831;SDS011;4452;50.756;4.472;2023-05-27T08:30:53;19.55;;;7.32;;
8831;SDS011;4452;50.756;4.472;2023-05-27T08:33:22;18.85;;;7.78;;
8831;SDS011;4452;50.756;4.472;2023-05-27T08:35:50;25.33;;;7.43;;
8831;SDS011;4452;50.756;4.472;2023-05-27T08:38:19;17.35;;;7.57;;
8831;SDS011;4452;50.756;4.472;2023-05-27T08:40:47;27.98;;;8.93;;
8831;SDS011;4452;50.756;4.472;2023-05-27T08:43:15;28.50;;;8.43;;
8831;SDS011;4452;50.756;4.472;2023-05-27T08:45:41;29.48;;;8.15;;
8831;SDS011;4452;50.756;4.472;2023-05-27T08:48:08;20.33;;;7.75;;
8831;SDS011;4452;50.756;4.472;2023-05-27T08:50:35;31.75;;;7.40;;
8831;SDS011;4452;50.756;4.472;2023-05-27T08:53:01;21.65;;;7.32;;
8831;SDS011;4452;50.756;4.472;2023-05-27T08:55:28;26.58;;;7.65;;
8831;SDS011;4452;50.756;4.472;2023-05-27T08:57:56;28.95;;;8.00;;
8831;SDS011;4452;50.756;4.472;2023-05-27T09:00:26;20.52;;;8.10;;
8831;SDS011;4452;50.756;4.472;2023-05-27T09:02:52;17.67;;;7.43;;
8831;SDS011;4452;50.756;4.472;2023-05-27T09:05:24;26.05;;;8.05;;
8831;SDS011;4452;50.756;4.472;2023-05-27T09:07:51;19.33;;;6.75;;
8831;SDS011;4452;50.756;4.472;2023-05-27T09:10:16;22.40;;;7.55;;
8831;SDS011;4452;50.756;4.472;2023-05-27T09:12:43;24.67;;;7.20;;
8831;SDS011;4452;50.756;4.472;2023-05-27T09:15:10;22.83;;;8.27;;
8831;SDS011;4452;50.756;4.472;2023-05-27T09:17:43;19.48;;;7.18;;
8831;SDS011;4452;50.756;4.472;2023-05-27T09:20:10;25.48;;;8.20;;
8831;SDS011;4452;50.756;4.472;2023-05-27T09:22:37;21.20;;;6.90;;
8831;SDS011;4452;50.756;4.472;2023-05-27T09:25:04;21.02;;;7.95;;
8831;SDS011;4452;50.756;4.472;2023-05-27T09:27:30;18.90;;;7.25;;
8831;SDS011;4452;50.756;4.472;2023-05-27T09:29:57;20.25;;;7.82;;
8831;SDS011;4452;50.756;4.472;2023-05-27T09:32:26;28.00;;;7.43;;
8831;SDS011;4452;50.756;4.472;2023-05-27T09:34:56;17.58;;;6.72;;
8831;SDS011;4452;50.756;4.472;2023-05-27T09:37:26;20.10;;;7.60;;
8831;SDS011;4452;50.756;4.472;2023-05-27T09:40:20;20.48;;;7.03;;
8831;SDS011;4452;50.756;4.472;2023-05-27T09:42:46;24.05;;;7.57;;
8831;SDS011;4452;50.756;4.472;2023-05-27T09:45:13;23.63;;;7.55;;
8831;SDS011;4452;50.756;4.472;2023-05-27T09:47:41;23.88;;;7.90;;
8831;SDS011;4452;50.756;4.472;2023-05-27T09:50:11;18.23;;;7.20;;
8831;SDS011;4452;50.756;4.472;2023-05-27T09:52:39;25.55;;;8.55;;
8831;SDS011;4452;50.756;4.472;2023-05-27T09:55:09;33.15;;;7.38;;
8831;SDS011;4452;50.756;4.472;2023-05-27T09:57:37;23.33;;;7.38;;
8831;SDS011;4452;50.756;4.472;2023-05-27T10:00:04;16.00;;;6.78;;
8831;SDS011;4452;50.756;4.472;2023-05-27T10:02:37;19.63;;;7.88;;
8831;SDS011;4452;50.756;4.472;2023-05-27T10:05:20;23.77;;;6.97;;
8831;SDS011;4452;50.756;4.472;2023-05-27T10:07:47;17.52;;;6.57;;
8831;SDS011;4452;50.756;4.472;2023-05-27T10:10:14;20.02;;;7.72;;
8831;SDS011;4452;50.756;4.472;2023-05-27T10:12:43;16.60;;;6.78;;
8831;SDS011;4452;50.756;4.472;2023-05-27T10:15:20;14.13;;;6.43;;
8831;SDS011;4452;50.756;4.472;2023-05-27T10:17:48;24.73;;;7.97;;
8831;SDS011;4452;50.756;4.472;2023-05-27T10:20:30;17.95;;;6.75;;
8831;SDS011;4452;50.756;4.472;2023-05-27T10:22:57;17.65;;;6.38;;
8831;SDS011;4452;50.756;4.472;2023-05-27T10:25:37;24.08;;;6.13;;
8831;SDS011;4452;50.756;4.472;2023-05-27T10:28:03;23.75;;;6.70;;
8831;SDS011;4452;50.756;4.472;2023-05-27T10:30:29;19.55;;;6.55;;
8831;SDS011;4452;50.756;4.472;2023-05-27T10:33:06;19.95;;;6.95;;
8831;SDS011;4452;50.756;4.472;2023-05-27T10:35:38;18.30;;;6.43;;
8831;SDS011;4452;50.756;4.472;2023-05-27T10:38:13;19.85;;;6.30;;
8831;SDS011;4452;50.756;4.472;2023-05-27T10:40:43;20.48;;;7.10;;
8831;SDS011;4452;50.756;4.472;2023-05-27T10:43:16;26.80;;;7.35;;
8831;SDS011;4452;50.756;4.472;2023-05-27T10:45:43;19.77;;;6.63;;
8831;SDS011;4452;50.756;4.472;2023-05-27T10:48:19;24.95;;;6.15;;
8831;SDS011;4452;50.756;4.472;2023-05-27T10:50:56;18.88;;;6.63;;
8831;SDS011;4452;50.756;4.472;2023-05-27T10:53:23;19.08;;;6.10;;
8831;SDS011;4452;50.756;4.472;2023-05-27T10:55:51;17.77;;;5.90;;
8831;SDS011;4452;50.756;4.472;2023-05-27T10:58:18;20.17;;;6.65;;
8831;SDS011;4452;50.756;4.472;2023-05-27T11:00:45;23.15;;;7.55;;
8831;SDS011;4452;50.756;4.472;2023-05-27T11:03:20;16.35;;;6.18;;
8831;SDS011;4452;50.756;4.472;2023-05-27T11:06:01;17.55;;;5.68;;
8831;SDS011;4452;50.756;4.472;2023-05-27T11:08:30;19.42;;;6.43;;
8831;SDS011;4452;50.756;4.472;2023-05-27T11:11:00;14.60;;;5.70;;
8831;SDS011;4452;50.756;4.472;2023-05-27T11:16:04;17.58;;;5.80;;
8831;SDS011;4452;50.756;4.472;2023-05-27T11:21:10;17.02;;;5.47;;
8831;SDS011;4452;50.756;4.472;2023-05-27T11:23:37;17.98;;;6.28;;
8831;SDS011;4452;50.756;4.472;2023-05-27T11:26:11;19.33;;;5.72;;
8831;SDS011;4452;50.756;4.472;2023-05-27T11:31:18;15.38;;;5.20;;
8831;SDS011;4452;50.756;4.472;2023-05-27T11:33:46;14.80;;;5.65;;
8831;SDS011;4452;50.756;4.472;2023-05-27T11:36:15;15.35;;;5.00;;
8831;SDS011;4452;50.756;4.472;2023-05-27T11:41:20;16.85;;;5.55;;
8831;SDS011;4452;50.756;4.472;2023-05-27T11:46:20;17.45;;;5.78;;
8831;SDS011;4452;50.756;4.472;2023-05-27T11:48:46;17.00;;;6.30;;
8831;SDS011;4452;50.756;4.472;2023-05-27T11:51:13;15.48;;;5.78;;
8831;SDS011;4452;50.756;4.472;2023-05-27T11:53:45;15.00;;;4.78;;
8831;SDS011;4452;50.756;4.472;2023-05-27T11:56:16;18.35;;;5.88;;
8831;SDS011;4452;50.756;4.472;2023-05-27T11:58:41;28.38;;;5.78;;
8831;SDS011;4452;50.756;4.472;2023-05-27T12:01:07;11.05;;;5.18;;
8831;SDS011;4452;50.756;4.472;2023-05-27T12:03:33;17.52;;;5.70;;
8831;SDS011;4452;50.756;4.472;2023-05-27T12:06:00;15.50;;;5.82;;
8831;SDS011;4452;50.756;4.472;2023-05-27T12:08:26;12.88;;;5.72;;
8831;SDS011;4452;50.756;4.472;2023-05-27T12:10:52;13.60;;;5.10;;
8831;SDS011;4452;50.756;4.472;2023-05-27T12:13:19;13.57;;;5.30;;
8831;SDS011;4452;50.756;4.472;2023-05-27T12:15:46;14.80;;;5.20;;
8831;SDS011;4452;50.756;4.472;2023-05-27T12:18:13;14.80;;;5.38;;
8831;SDS011;4452;50.756;4.472;2023-05-27T12:20:39;16.67;;;5.65;;
8831;SDS011;4452;50.756;4.472;2023-05-27T12:23:05;11.60;;;5.22;;
8831;SDS011;4452;50.756;4.472;2023-05-27T12:25:30;17.52;;;6.00;;
8831;SDS011;4452;50.756;4.472;2023-05-27T12:27:56;14.63;;;5.75;;
8831;SDS011;4452;50.756;4.472;2023-05-27T12:30:22;13.63;;;5.15;;
8831;SDS011;4452;50.756;4.472;2023-05-27T12:32:48;12.00;;;5.30;;
8831;SDS011;4452;50.756;4.472;2023-05-27T12:35:13;16.85;;;5.72;;
8831;SDS011;4452;50.756;4.472;2023-05-27T12:37:40;11.93;;;5.47;;
8831;SDS011;4452;50.756;4.472;2023-05-27T12:40:05;14.75;;;5.88;;
8831;SDS011;4452;50.756;4.472;2023-05-27T12:42:34;18.92;;;5.55;;
8831;SDS011;4452;50.756;4.472;2023-05-27T12:45:00;11.70;;;5.22;;
8831;SDS011;4452;50.756;4.472;2023-05-27T12:47:25;15.18;;;5.57;;
8831;SDS011;4452;50.756;4.472;2023-05-27T12:49:51;13.98;;;5.15;;
8831;SDS011;4452;50.756;4.472;2023-05-27T12:52:17;12.77;;;5.70;;
8831;SDS011;4452;50.756;4.472;2023-05-27T12:54:42;11.00;;;5.22;;
8831;SDS011;4452;50.756;4.472;2023-05-27T12:57:08;13.63;;;5.50;;
8831;SDS011;4452;50.756;4.472;2023-05-27T12:59:34;15.80;;;5.28;;
8831;SDS011;4452;50.756;4.472;2023-05-27T13:02:03;15.50;;;5.40;;
8831;SDS011;4452;50.756;4.472;2023-05-27T13:04:36;17.42;;;5.72;;
8831;SDS011;4452;50.756;4.472;2023-05-27T13:07:04;15.73;;;5.80;;
8831;SDS011;4452;50.756;4.472;2023-05-27T13:09:33;21.05;;;5.63;;
8831;SDS011;4452;50.756;4.472;2023-05-27T13:12:02;16.77;;;5.28;;
8831;SDS011;4452;50.756;4.472;2023-05-27T13:14:30;11.45;;;5.53;;
8831;SDS011;4452;50.756;4.472;2023-05-27T13:16:56;15.13;;;5.13;;
8831;SDS011;4452;50.756;4.472;2023-05-27T13:19:21;15.30;;;5.75;;
8831;SDS011;4452;50.756;4.472;2023-05-27T13:21:48;15.88;;;5.57;;
8831;SDS011;4452;50.756;4.472;2023-05-27T13:24:14;13.85;;;5.80;;
8831;SDS011;4452;50.756;4.472;2023-05-27T13:26:40;16.45;;;6.18;;
8831;SDS011;4452;50.756;4.472;2023-05-27T13:29:07;20.38;;;5.78;;
8831;SDS011;4452;50.756;4.472;2023-05-27T13:31:33;17.38;;;5.93;;
8831;SDS011;4452;50.756;4.472;2023-05-27T13:33:58;18.25;;;5.97;;
8831;SDS011;4452;50.756;4.472;2023-05-27T13:36:24;14.10;;;5.90;;
8831;SDS011;4452;50.756;4.472;2023-05-27T13:38:50;15.80;;;5.47;;
8831;SDS011;4452;50.756;4.472;2023-05-27T13:41:15;13.60;;;5.32;;
8831;SDS011;4452;50.756;4.472;2023-05-27T13:43:41;16.65;;;6.00;;
8831;SDS011;4452;50.756;4.472;2023-05-27T13:46:07;12.75;;;5.97;;
8831;SDS011;4452;50.756;4.472;2023-05-27T13:48:32;14.52;;;5.80;;
8831;SDS011;4452;50.756;4.472;2023-05-27T13:50:58;17.85;;;5.40;;
8831;SDS011;4452;50.756;4.472;2023-05-27T13:53:24;19.58;;;6.15;;
8831;SDS011;4452;50.756;4.472;2023-05-27T13:55:50;14.82;;;6.00;;
8831;SDS011;4452;50.756;4.472;2023-05-27T13:58:16;9.20;;;5.22;;
8831;SDS011;4452;50.756;4.472;2023-05-27T14:00:43;16.85;;;5.78;;
8831;SDS011;4452;50.756;4.472;2023-05-27T14:03:08;14.00;;;5.75;;
8831;SDS011;4452;50.756;4.472;2023-05-27T14:05:34;12.23;;;4.97;;
8831;SDS011;4452;50.756;4.472;2023-05-27T14:08:01;11.82;;;4.82;;
8831;SDS011;4452;50.756;4.472;2023-05-27T14:10:31;15.90;;;5.47;;
8831;SDS011;4452;50.756;4.472;2023-05-27T14:12:58;14.68;;;5.60;;
8831;SDS011;4452;50.756;4.472;2023-05-27T14:15:26;13.02;;;5.72;;
8831;SDS011;4452;50.756;4.472;2023-05-27T14:17:53;14.27;;;5.55;;
8831;SDS011;4452;50.756;4.472;2023-05-27T14:20:19;15.80;;;5.82;;
8831;SDS011;4452;50.756;4.472;2023-05-27T14:22:46;19.17;;;5.97;;
8831;SDS011;4452;50.756;4.472;2023-05-27T14:25:11;12.98;;;5.70;;
8831;SDS011;4452;50.756;4.472;2023-05-27T14:27:37;14.98;;;5.47;;
8831;SDS011;4452;50.756;4.472;2023-05-27T14:30:04;13.40;;;5.40;;
8831;SDS011;4452;50.756;4.472;2023-05-27T14:32:30;13.82;;;5.55;;
8831;SDS011;4452;50.756;4.472;2023-05-27T14:34:56;14.73;;;5.32;;
8831;SDS011;4452;50.756;4.472;2023-05-27T14:37:22;14.70;;;5.18;;
8831;SDS011;4452;50.756;4.472;2023-05-27T14:39:48;18.73;;;5.53;;
8831;SDS011;4452;50.756;4.472;2023-05-27T14:42:15;15.90;;;6.07;;
8831;SDS011;4452;50.756;4.472;2023-05-27T14:44:41;13.55;;;5.45;;
8831;SDS011;4452;50.756;4.472;2023-05-27T14:47:07;14.18;;;5.43;;
8831;SDS011;4452;50.756;4.472;2023-05-27T14:49:33;9.32;;;5.47;;
8831;SDS011;4452;50.756;4.472;2023-05-27T14:51:59;11.40;;;4.97;;
8831;SDS011;4452;50.756;4.472;2023-05-27T14:54:24;12.82;;;5.28;;
8831;SDS011;4452;50.756;4.472;2023-05-27T14:56:50;10.38;;;5.30;;
8831;SDS011;4452;50.756;4.472;2023-05-27T14:59:16;11.02;;;5.18;;
8831;SDS011;4452;50.756;4.472;2023-05-27T15:01:42;10.27;;;5.05;;
8831;SDS011;4452;50.756;4.472;2023-05-27T15:04:08;11.75;;;5.20;;
8831;SDS011;4452;50.756;4.472;2023-05-27T15:06:35;15.27;;;5.80;;
8831;SDS011;4452;50.756;4.472;2023-05-27T15:09:00;11.60;;;6.43;;
8831;SDS011;4452;50.756;4.472;2023-05-27T15:11:26;17.83;;;5.65;;
8831;SDS011;4452;50.756;4.472;2023-05-27T15:13:51;15.05;;;5.57;;
8831;SDS011;4452;50.756;4.472;2023-05-27T15:16:20;9.35;;;5.53;;
8831;SDS011;4452;50.756;4.472;2023-05-27T15:18:46;15.15;;;5.20;;